Fayette, Missouri
Current Conditions -  °F | °C
As of 3:55 PM on Friday 28 Nov 2014 (Local Time) from KVER Reporting Station
Clear Clear  
Wind Chill: 60°   Ceiling: Unl
Heat Index: 60°   Visibility: 10mi
Dew Point: 32°   Wind: 6mph
Humidity: 35%   Direction: 180°S
Pressure: 29.84"   Gusts: NA
Location:  39.15°N, 92.68°W
Report Text: KVER 282155Z AUTO 18005KT 10SM CLR 16/00 A2984 RMK AO2 T01580001
Loading
Personal Weather Stations






























Interactive Weather Map New forecast layout! Learn more

10-Day Weather Forecast

Advertisements
Track Severe Weather on mobile